sensor_id;sensor_type;location;lat;lon;timestamp;temperature;humidity
18191;DHT22;47004;51.366;12.348;2023-04-02T00:00:18;5.90;99.90
18191;DHT22;47004;51.366;12.348;2023-04-02T00:02:44;5.90;99.90
18191;DHT22;47004;51.366;12.348;2023-04-02T00:07:50;5.90;99.90
18191;DHT22;47004;51.366;12.348;2023-04-02T00:09:53;5.80;99.90
18191;DHT22;47004;51.366;12.348;2023-04-02T00:11:56;5.90;99.90
18191;DHT22;47004;51.366;12.348;2023-04-02T00:14:00;5.80;99.90
18191;DHT22;47004;51.366;12.348;2023-04-02T00:16:05;5.80;99.90
18191;DHT22;47004;51.366;12.348;2023-04-02T00:18:10;5.80;99.90
18191;DHT22;47004;51.366;12.348;2023-04-02T00:20:17;5.70;99.90
18191;DHT22;47004;51.366;12.348;2023-04-02T00:22:21;5.80;99.90
18191;DHT22;47004;51.366;12.348;2023-04-02T00:24:25;5.80;99.90
18191;DHT22;47004;51.366;12.348;2023-04-02T00:26:30;5.70;99.90
18191;DHT22;47004;51.366;12.348;2023-04-02T00:28:33;5.70;99.90
18191;DHT22;47004;51.366;12.348;2023-04-02T00:30:35;5.70;99.90
18191;DHT22;47004;51.366;12.348;2023-04-02T00:32:37;5.70;99.90
18191;DHT22;47004;51.366;12.348;2023-04-02T00:34:40;5.60;99.90
18191;DHT22;47004;51.366;12.348;2023-04-02T00:36:45;5.60;99.90
18191;DHT22;47004;51.366;12.348;2023-04-02T00:38:47;5.60;99.90
18191;DHT22;47004;51.366;12.348;2023-04-02T00:40:50;5.60;99.90
18191;DHT22;47004;51.366;12.348;2023-04-02T00:42:56;5.60;99.90
18191;DHT22;47004;51.366;12.348;2023-04-02T00:45:00;5.60;99.90
18191;DHT22;47004;51.366;12.348;2023-04-02T00:47:09;5.60;99.90
18191;DHT22;47004;51.366;12.348;2023-04-02T00:49:18;5.50;99.90
18191;DHT22;47004;51.366;12.348;2023-04-02T00:51:23;5.50;99.90
18191;DHT22;47004;51.366;12.348;2023-04-02T00:53:28;5.50;99.90
18191;DHT22;47004;51.366;12.348;2023-04-02T00:55:34;5.50;99.90
18191;DHT22;47004;51.366;12.348;2023-04-02T00:57:41;5.50;99.90
18191;DHT22;47004;51.366;12.348;2023-04-02T00:59:53;5.40;99.90
18191;DHT22;47004;51.366;12.348;2023-04-02T01:01:59;5.40;99.90
18191;DHT22;47004;51.366;12.348;2023-04-02T01:04:04;5.40;99.90
18191;DHT22;47004;51.366;12.348;2023-04-02T01:06:09;5.40;99.90
18191;DHT22;47004;51.366;12.348;2023-04-02T01:08:18;5.40;99.90
18191;DHT22;47004;51.366;12.348;2023-04-02T01:10:37;5.30;99.90
18191;DHT22;47004;51.366;12.348;2023-04-02T01:12:49;5.30;99.90
18191;DHT22;47004;51.366;12.348;2023-04-02T01:15:00;5.30;99.90
18191;DHT22;47004;51.366;12.348;2023-04-02T01:17:15;5.40;99.90
18191;DHT22;47004;51.366;12.348;2023-04-02T01:19:55;5.30;99.90
18191;DHT22;47004;51.366;12.348;2023-04-02T01:22:05;5.30;99.90
18191;DHT22;47004;51.366;12.348;2023-04-02T01:24:09;5.20;99.90
18191;DHT22;47004;51.366;12.348;2023-04-02T01:26:19;5.20;99.90
18191;DHT22;47004;51.366;12.348;2023-04-02T01:28:27;5.20;99.90
18191;DHT22;47004;51.366;12.348;2023-04-02T01:30:35;5.20;99.90
18191;DHT22;47004;51.366;12.348;2023-04-02T01:32:37;5.10;99.90
18191;DHT22;47004;51.366;12.348;2023-04-02T01:34:41;5.10;99.90
18191;DHT22;47004;51.366;12.348;2023-04-02T01:36:53;5.10;99.90
18191;DHT22;47004;51.366;12.348;2023-04-02T01:39:04;5.20;99.90
18191;DHT22;47004;51.366;12.348;2023-04-02T01:41:10;5.10;99.90
18191;DHT22;47004;51.366;12.348;2023-04-02T01:43:18;5.00;99.90
18191;DHT22;47004;51.366;12.348;2023-04-02T01:45:23;5.00;99.90
18191;DHT22;47004;51.366;12.348;2023-04-02T01:47:27;4.90;99.90
18191;DHT22;47004;51.366;12.348;2023-04-02T01:49:29;5.00;99.90
18191;DHT22;47004;51.366;12.348;2023-04-02T01:51:33;4.90;99.90
18191;DHT22;47004;51.366;12.348;2023-04-02T01:53:35;4.90;99.90
18191;DHT22;47004;51.366;12.348;2023-04-02T01:55:42;4.90;99.90
18191;DHT22;47004;51.366;12.348;2023-04-02T01:57:47;4.90;99.90
18191;DHT22;47004;51.366;12.348;2023-04-02T01:59:50;4.80;99.90
18191;DHT22;47004;51.366;12.348;2023-04-02T02:01:57;4.80;99.90
18191;DHT22;47004;51.366;12.348;2023-04-02T02:04:02;4.80;99.90
18191;DHT22;47004;51.366;12.348;2023-04-02T02:06:05;4.70;99.90
18191;DHT22;47004;51.366;12.348;2023-04-02T02:08:19;4.70;99.90
18191;DHT22;47004;51.366;12.348;2023-04-02T02:10:25;4.70;99.90
18191;DHT22;47004;51.366;12.348;2023-04-02T02:12:27;4.70;99.90
18191;DHT22;47004;51.366;12.348;2023-04-02T02:14:30;4.70;99.90
18191;DHT22;47004;51.366;12.348;2023-04-02T02:16:34;4.70;99.90
18191;DHT22;47004;51.366;12.348;2023-04-02T02:18:41;4.60;99.90
18191;DHT22;47004;51.366;12.348;2023-04-02T02:20:45;4.70;99.90
18191;DHT22;47004;51.366;12.348;2023-04-02T02:22:48;4.60;99.90
18191;DHT22;47004;51.366;12.348;2023-04-02T02:24:51;4.60;99.90
18191;DHT22;47004;51.366;12.348;2023-04-02T02:27:02;4.60;99.90
18191;DHT22;47004;51.366;12.348;2023-04-02T02:29:10;4.60;99.90
18191;DHT22;47004;51.366;12.348;2023-04-02T02:31:17;4.60;99.90
18191;DHT22;47004;51.366;12.348;2023-04-02T02:33:24;4.50;99.90
18191;DHT22;47004;51.366;12.348;2023-04-02T02:35:29;4.60;99.90
18191;DHT22;47004;51.366;12.348;2023-04-02T02:37:36;4.50;99.90
18191;DHT22;47004;51.366;12.348;2023-04-02T02:39:42;4.50;99.90
18191;DHT22;47004;51.366;12.348;2023-04-02T02:41:47;4.50;99.90
18191;DHT22;47004;51.366;12.348;2023-04-02T02:43:56;4.50;99.90
18191;DHT22;47004;51.366;12.348;2023-04-02T02:46:03;4.40;99.90
18191;DHT22;47004;51.366;12.348;2023-04-02T02:48:10;4.50;99.90
18191;DHT22;47004;51.366;12.348;2023-04-02T02:50:17;4.50;99.90
18191;DHT22;47004;51.366;12.348;2023-04-02T02:52:22;4.40;99.90
18191;DHT22;47004;51.366;12.348;2023-04-02T02:54:28;4.40;99.90
18191;DHT22;47004;51.366;12.348;2023-04-02T02:56:34;4.40;99.90
18191;DHT22;47004;51.366;12.348;2023-04-02T02:58:38;4.40;99.90
18191;DHT22;47004;51.366;12.348;2023-04-02T03:00:41;4.40;99.90
18191;DHT22;47004;51.366;12.348;2023-04-02T03:02:45;4.40;99.90
18191;DHT22;47004;51.366;12.348;2023-04-02T03:04:51;4.40;99.90
18191;DHT22;47004;51.366;12.348;2023-04-02T03:06:56;4.30;99.90
18191;DHT22;47004;51.366;12.348;2023-04-02T03:09:03;4.30;99.90
18191;DHT22;47004;51.366;12.348;2023-04-02T03:11:17;4.30;99.90
18191;DHT22;47004;51.366;12.348;2023-04-02T03:13:26;4.30;99.90
18191;DHT22;47004;51.366;12.348;2023-04-02T03:15:35;4.30;99.90
18191;DHT22;47004;51.366;12.348;2023-04-02T03:17:42;4.30;99.90
18191;DHT22;47004;51.366;12.348;2023-04-02T03:19:48;4.30;99.90
18191;DHT22;47004;51.366;12.348;2023-04-02T03:21:54;4.20;99.90
18191;DHT22;47004;51.366;12.348;2023-04-02T03:24:01;4.20;99.90
18191;DHT22;47004;51.366;12.348;2023-04-02T03:26:07;4.20;99.90
18191;DHT22;47004;51.366;12.348;2023-04-02T03:28:15;4.20;99.90
18191;DHT22;47004;51.366;12.348;2023-04-02T03:30:26;4.20;99.90
18191;DHT22;47004;51.366;12.348;2023-04-02T03:32:32;4.10;99.90
18191;DHT22;47004;51.366;12.348;2023-04-02T03:34:40;4.20;99.90
18191;DHT22;47004;51.366;12.348;2023-04-02T03:36:51;4.10;99.90
18191;DHT22;47004;51.366;12.348;2023-04-02T03:39:02;4.10;99.90
18191;DHT22;47004;51.366;12.348;2023-04-02T03:41:10;4.10;99.90
18191;DHT22;47004;51.366;12.348;2023-04-02T03:43:19;4.10;99.90
18191;DHT22;47004;51.366;12.348;2023-04-02T03:45:24;4.10;99.90
18191;DHT22;47004;51.366;12.348;2023-04-02T03:47:30;4.00;99.90
18191;DHT22;47004;51.366;12.348;2023-04-02T03:49:38;4.00;99.90
18191;DHT22;47004;51.366;12.348;2023-04-02T03:51:48;4.00;99.90
18191;DHT22;47004;51.366;12.348;2023-04-02T03:53:51;4.00;99.90
18191;DHT22;47004;51.366;12.348;2023-04-02T03:55:54;4.00;99.90
18191;DHT22;47004;51.366;12.348;2023-04-02T03:58:02;3.90;99.90
18191;DHT22;47004;51.366;12.348;2023-04-02T04:00:14;3.90;99.90
18191;DHT22;47004;51.366;12.348;2023-04-02T04:02:26;3.90;99.90
18191;DHT22;47004;51.366;12.348;2023-04-02T04:04:38;3.90;99.90
18191;DHT22;47004;51.366;12.348;2023-04-02T04:06:41;3.90;99.90
18191;DHT22;47004;51.366;12.348;2023-04-02T04:08:48;3.90;99.90
18191;DHT22;47004;51.366;12.348;2023-04-02T04:10:52;3.90;99.90
18191;DHT22;47004;51.366;12.348;2023-04-02T04:13:03;3.90;99.90
18191;DHT22;47004;51.366;12.348;2023-04-02T04:15:12;3.80;99.90
18191;DHT22;47004;51.366;12.348;2023-04-02T04:17:21;3.80;99.90
18191;DHT22;47004;51.366;12.348;2023-04-02T04:19:36;3.80;99.90
18191;DHT22;47004;51.366;12.348;2023-04-02T04:21:39;3.80;99.90
18191;DHT22;47004;51.366;12.348;2023-04-02T04:23:49;3.80;99.90
18191;DHT22;47004;51.366;12.348;2023-04-02T04:25:57;3.80;99.90
18191;DHT22;47004;51.366;12.348;2023-04-02T04:28:08;3.80;99.90
18191;DHT22;47004;51.366;12.348;2023-04-02T04:30:16;3.80;99.90
18191;DHT22;47004;51.366;12.348;2023-04-02T04:32:26;3.80;99.90
18191;DHT22;47004;51.366;12.348;2023-04-02T04:34:39;3.70;99.90
18191;DHT22;47004;51.366;12.348;2023-04-02T04:36:50;3.80;99.90
18191;DHT22;47004;51.366;12.348;2023-04-02T04:38:57;3.80;99.90
18191;DHT22;47004;51.366;12.348;2023-04-02T04:41:05;3.70;99.90
18191;DHT22;47004;51.366;12.348;2023-04-02T04:43:17;3.70;99.90
18191;DHT22;47004;51.366;12.348;2023-04-02T04:45:39;3.70;99.90
18191;DHT22;47004;51.366;12.348;2023-04-02T04:47:47;3.80;99.90
18191;DHT22;47004;51.366;12.348;2023-04-02T04:49:53;3.70;99.90
18191;DHT22;47004;51.366;12.348;2023-04-02T04:51:58;3.70;99.90
18191;DHT22;47004;51.366;12.348;2023-04-02T04:54:01;3.60;99.90
18191;DHT22;47004;51.366;12.348;2023-04-02T04:56:03;3.60;99.90
18191;DHT22;47004;51.366;12.348;2023-04-02T04:58:15;3.60;99.90
18191;DHT22;47004;51.366;12.348;2023-04-02T05:00:20;3.70;99.90
18191;DHT22;47004;51.366;12.348;2023-04-02T05:02:28;3.60;99.90
18191;DHT22;47004;51.366;12.348;2023-04-02T05:04:36;3.60;99.90
18191;DHT22;47004;51.366;12.348;2023-04-02T05:06:41;3.60;99.90
18191;DHT22;47004;51.366;12.348;2023-04-02T05:08:46;3.60;99.90
18191;DHT22;47004;51.366;12.348;2023-04-02T05:10:51;3.60;99.90
18191;DHT22;47004;51.366;12.348;2023-04-02T05:13:02;3.50;99.90
18191;DHT22;47004;51.366;12.348;2023-04-02T05:15:11;3.50;99.90
18191;DHT22;47004;51.366;12.348;2023-04-02T05:17:18;3.50;99.90
18191;DHT22;47004;51.366;12.348;2023-04-02T05:19:27;3.50;99.90
18191;DHT22;47004;51.366;12.348;2023-04-02T05:21:36;3.50;99.90
18191;DHT22;47004;51.366;12.348;2023-04-02T05:23:44;3.50;99.90
18191;DHT22;47004;51.366;12.348;2023-04-02T05:25:51;3.50;99.90
18191;DHT22;47004;51.366;12.348;2023-04-02T05:27:58;3.50;99.90
18191;DHT22;47004;51.366;12.348;2023-04-02T05:30:09;3.40;99.90
18191;DHT22;47004;51.366;12.348;2023-04-02T05:32:16;3.40;99.90
18191;DHT22;47004;51.366;12.348;2023-04-02T05:34:24;3.40;99.90
18191;DHT22;47004;51.366;12.348;2023-04-02T05:36:29;3.50;99.90
18191;DHT22;47004;51.366;12.348;2023-04-02T05:38:33;3.40;99.90
18191;DHT22;47004;51.366;12.348;2023-04-02T05:40:39;3.40;99.90
18191;DHT22;47004;51.366;12.348;2023-04-02T05:42:48;3.40;99.90
18191;DHT22;47004;51.366;12.348;2023-04-02T05:45:02;3.40;99.90
18191;DHT22;47004;51.366;12.348;2023-04-02T05:47:11;3.40;99.90
18191;DHT22;47004;51.366;12.348;2023-04-02T05:49:19;3.40;99.90
18191;DHT22;47004;51.366;12.348;2023-04-02T05:51:34;3.40;99.90
18191;DHT22;47004;51.366;12.348;2023-04-02T05:53:44;3.50;99.90
18191;DHT22;47004;51.366;12.348;2023-04-02T05:55:54;3.40;99.90
18191;DHT22;47004;51.366;12.348;2023-04-02T05:58:00;3.40;99.90
18191;DHT22;47004;51.366;12.348;2023-04-02T06:00:07;3.40;99.90
18191;DHT22;47004;51.366;12.348;2023-04-02T06:02:18;3.40;99.90
18191;DHT22;47004;51.366;12.348;2023-04-02T06:04:25;3.40;99.90
18191;DHT22;47004;51.366;12.348;2023-04-02T06:06:46;3.40;99.90
18191;DHT22;47004;51.366;12.348;2023-04-02T06:08:54;3.40;99.90
18191;DHT22;47004;51.366;12.348;2023-04-02T06:11:00;3.30;99.90
18191;DHT22;47004;51.366;12.348;2023-04-02T06:13:06;3.30;99.90
18191;DHT22;47004;51.366;12.348;2023-04-02T06:15:12;3.30;99.90
18191;DHT22;47004;51.366;12.348;2023-04-02T06:17:15;3.30;99.90
18191;DHT22;47004;51.366;12.348;2023-04-02T06:19:21;3.30;99.90
18191;DHT22;47004;51.366;12.348;2023-04-02T06:21:25;3.30;99.90
18191;DHT22;47004;51.366;12.348;2023-04-02T06:23:31;3.40;99.90
18191;DHT22;47004;51.366;12.348;2023-04-02T06:25:38;3.40;99.90
18191;DHT22;47004;51.366;12.348;2023-04-02T06:27:42;3.40;99.90
18191;DHT22;47004;51.366;12.348;2023-04-02T06:29:47;3.40;99.90
18191;DHT22;47004;51.366;12.348;2023-04-02T06:31:54;3.40;99.90
18191;DHT22;47004;51.366;12.348;2023-04-02T06:33:57;3.40;99.90
18191;DHT22;47004;51.366;12.348;2023-04-02T06:36:00;3.40;99.90
18191;DHT22;47004;51.366;12.348;2023-04-02T06:38:06;3.40;99.90
18191;DHT22;47004;51.366;12.348;2023-04-02T06:40:26;3.40;99.90
18191;DHT22;47004;51.366;12.348;2023-04-02T06:42:32;3.40;99.90
18191;DHT22;47004;51.366;12.348;2023-04-02T06:44:36;3.40;99.90
18191;DHT22;47004;51.366;12.348;2023-04-02T06:46:42;3.40;99.90
18191;DHT22;47004;51.366;12.348;2023-04-02T06:48:47;3.40;99.90
18191;DHT22;47004;51.366;12.348;2023-04-02T06:50:53;3.40;99.90
18191;DHT22;47004;51.366;12.348;2023-04-02T06:52:58;3.40;99.90
18191;DHT22;47004;51.366;12.348;2023-04-02T06:55:06;3.40;99.90
18191;DHT22;47004;51.366;12.348;2023-04-02T06:57:16;3.40;99.90
18191;DHT22;47004;51.366;12.348;2023-04-02T06:59:18;3.40;99.90
18191;DHT22;47004;51.366;12.348;2023-04-02T07:01:22;3.50;99.90
18191;DHT22;47004;51.366;12.348;2023-04-02T07:03:27;3.40;99.90
18191;DHT22;47004;51.366;12.348;2023-04-02T07:05:30;3.50;99.90
18191;DHT22;47004;51.366;12.348;2023-04-02T07:07:32;3.40;99.90
18191;DHT22;47004;51.366;12.348;2023-04-02T07:09:34;3.40;99.90
18191;DHT22;47004;51.366;12.348;2023-04-02T07:11:36;3.40;99.90
18191;DHT22;47004;51.366;12.348;2023-04-02T07:13:39;3.50;99.90
18191;DHT22;47004;51.366;12.348;2023-04-02T07:15:41;3.40;99.90
18191;DHT22;47004;51.366;12.348;2023-04-02T07:17:43;3.40;99.90
18191;DHT22;47004;51.366;12.348;2023-04-02T07:19:46;3.40;99.90
18191;DHT22;47004;51.366;12.348;2023-04-02T07:21:49;3.50;99.90
18191;DHT22;47004;51.366;12.348;2023-04-02T07:23:51;3.50;99.90
18191;DHT22;47004;51.366;12.348;2023-04-02T07:25:53;3.50;99.90
18191;DHT22;47004;51.366;12.348;2023-04-02T07:27:56;3.50;99.90
18191;DHT22;47004;51.366;12.348;2023-04-02T07:29:59;3.50;99.90
18191;DHT22;47004;51.366;12.348;2023-04-02T07:32:01;3.60;99.90
18191;DHT22;47004;51.366;12.348;2023-04-02T07:34:05;3.60;99.90
18191;DHT22;47004;51.366;12.348;2023-04-02T07:36:14;3.60;99.90
18191;DHT22;47004;51.366;12.348;2023-04-02T07:38:16;3.60;99.90
18191;DHT22;47004;51.366;12.348;2023-04-02T07:40:19;3.60;99.90
18191;DHT22;47004;51.366;12.348;2023-04-02T07:42:23;3.70;99.90
18191;DHT22;47004;51.366;12.348;2023-04-02T07:44:26;3.70;99.90
18191;DHT22;47004;51.366;12.348;2023-04-02T07:46:29;3.70;99.90
18191;DHT22;47004;51.366;12.348;2023-04-02T07:48:31;3.70;99.90
18191;DHT22;47004;51.366;12.348;2023-04-02T07:50:33;3.70;99.90
18191;DHT22;47004;51.366;12.348;2023-04-02T07:52:38;3.70;99.90
18191;DHT22;47004;51.366;12.348;2023-04-02T07:54:44;3.70;99.90
18191;DHT22;47004;51.366;12.348;2023-04-02T07:56:46;3.70;99.90
18191;DHT22;47004;51.366;12.348;2023-04-02T07:58:48;3.80;99.90
18191;DHT22;47004;51.366;12.348;2023-04-02T08:00:50;3.80;99.90
18191;DHT22;47004;51.366;12.348;2023-04-02T08:02:53;3.80;99.90
18191;DHT22;47004;51.366;12.348;2023-04-02T08:04:55;3.80;99.90
18191;DHT22;47004;51.366;12.348;2023-04-02T08:06:57;3.80;99.90
18191;DHT22;47004;51.366;12.348;2023-04-02T08:08:59;3.80;99.90
18191;DHT22;47004;51.366;12.348;2023-04-02T08:11:01;3.80;99.90
18191;DHT22;47004;51.366;12.348;2023-04-02T08:13:03;3.80;99.90
18191;DHT22;47004;51.366;12.348;2023-04-02T08:15:06;3.80;99.90
18191;DHT22;47004;51.366;12.348;2023-04-02T08:17:08;3.80;99.90
18191;DHT22;47004;51.366;12.348;2023-04-02T08:19:12;3.80;99.90
18191;DHT22;47004;51.366;12.348;2023-04-02T08:21:15;3.80;99.90
18191;DHT22;47004;51.366;12.348;2023-04-02T08:23:17;3.80;99.90
18191;DHT22;47004;51.366;12.348;2023-04-02T08:25:18;3.80;99.90
18191;DHT22;47004;51.366;12.348;2023-04-02T08:27:21;3.80;99.90
18191;DHT22;47004;51.366;12.348;2023-04-02T08:29:23;3.90;99.90
18191;DHT22;47004;51.366;12.348;2023-04-02T08:31:25;3.90;99.90
18191;DHT22;47004;51.366;12.348;2023-04-02T08:33:27;3.90;99.90
18191;DHT22;47004;51.366;12.348;2023-04-02T08:35:30;3.90;99.90
18191;DHT22;47004;51.366;12.348;2023-04-02T08:37:32;3.90;99.90
18191;DHT22;47004;51.366;12.348;2023-04-02T08:39:34;3.90;99.90
18191;DHT22;47004;51.366;12.348;2023-04-02T08:41:39;3.90;99.90
18191;DHT22;47004;51.366;12.348;2023-04-02T08:43:55;3.90;99.90
18191;DHT22;47004;51.366;12.348;2023-04-02T08:46:08;4.00;99.90
18191;DHT22;47004;51.366;12.348;2023-04-02T08:48:13;4.00;99.90
18191;DHT22;47004;51.366;12.348;2023-04-02T08:50:25;4.00;99.90
18191;DHT22;47004;51.366;12.348;2023-04-02T08:52:33;4.00;99.90
18191;DHT22;47004;51.366;12.348;2023-04-02T08:54:36;4.00;99.90
18191;DHT22;47004;51.366;12.348;2023-04-02T08:56:43;4.00;99.90
18191;DHT22;47004;51.366;12.348;2023-04-02T08:58:49;4.00;99.90
18191;DHT22;47004;51.366;12.348;2023-04-02T09:00:56;4.00;99.90
18191;DHT22;47004;51.366;12.348;2023-04-02T09:03:03;4.00;99.90
18191;DHT22;47004;51.366;12.348;2023-04-02T09:05:17;4.00;99.90
18191;DHT22;47004;51.366;12.348;2023-04-02T09:07:22;4.00;99.90
18191;DHT22;47004;51.366;12.348;2023-04-02T09:09:27;4.10;99.90
18191;DHT22;47004;51.366;12.348;2023-04-02T09:11:33;4.10;99.90
18191;DHT22;47004;51.366;12.348;2023-04-02T09:13:39;4.10;99.90
18191;DHT22;47004;51.366;12.348;2023-04-02T09:15:44;4.10;99.90
18191;DHT22;47004;51.366;12.348;2023-04-02T09:17:46;4.10;99.90
18191;DHT22;47004;51.366;12.348;2023-04-02T09:19:53;4.20;99.90
18191;DHT22;47004;51.366;12.348;2023-04-02T09:22:03;4.20;99.90
18191;DHT22;47004;51.366;12.348;2023-04-02T09:24:10;4.20;99.90
18191;DHT22;47004;51.366;12.348;2023-04-02T09:26:19;4.20;99.90
18191;DHT22;47004;51.366;12.348;2023-04-02T09:28:24;4.30;99.90
18191;DHT22;47004;51.366;12.348;2023-04-02T09:30:39;4.30;99.90
18191;DHT22;47004;51.366;12.348;2023-04-02T09:32:48;4.30;99.90
18191;DHT22;47004;51.366;12.348;2023-04-02T09:35:05;4.30;99.90
18191;DHT22;47004;51.366;12.348;2023-04-02T09:37:15;4.30;99.90
18191;DHT22;47004;51.366;12.348;2023-04-02T09:39:19;4.40;99.90
18191;DHT22;47004;51.366;12.348;2023-04-02T09:41:26;4.40;99.90
18191;DHT22;47004;51.366;12.348;2023-04-02T09:43:29;4.40;99.90
18191;DHT22;47004;51.366;12.348;2023-04-02T09:45:31;4.40;99.90
18191;DHT22;47004;51.366;12.348;2023-04-02T09:47:33;4.40;99.90
18191;DHT22;47004;51.366;12.348;2023-04-02T09:49:37;4.40;99.90
18191;DHT22;47004;51.366;12.348;2023-04-02T09:51:40;4.40;99.90
18191;DHT22;47004;51.366;12.348;2023-04-02T09:53:43;4.40;99.90
18191;DHT22;47004;51.366;12.348;2023-04-02T09:55:46;4.50;99.90
18191;DHT22;47004;51.366;12.348;2023-04-02T09:57:50;4.50;99.90
18191;DHT22;47004;51.366;12.348;2023-04-02T10:00:08;4.50;99.90
18191;DHT22;47004;51.366;12.348;2023-04-02T10:02:23;4.60;99.90
18191;DHT22;47004;51.366;12.348;2023-04-02T10:04:40;4.60;99.90
18191;DHT22;47004;51.366;12.348;2023-04-02T10:06:49;4.60;99.90
18191;DHT22;47004;51.366;12.348;2023-04-02T10:08:53;4.60;99.90
18191;DHT22;47004;51.366;12.348;2023-04-02T10:10:57;4.70;99.90
18191;DHT22;47004;51.366;12.348;2023-04-02T10:13:05;4.70;99.90
18191;DHT22;47004;51.366;12.348;2023-04-02T10:15:14;4.70;99.90
18191;DHT22;47004;51.366;12.348;2023-04-02T10:17:19;4.70;99.90
18191;DHT22;47004;51.366;12.348;2023-04-02T10:19:27;4.70;99.90
18191;DHT22;47004;51.366;12.348;2023-04-02T10:21:32;4.70;99.90
18191;DHT22;47004;51.366;12.348;2023-04-02T10:23:36;4.80;99.90
18191;DHT22;47004;51.366;12.348;2023-04-02T10:25:41;4.80;99.90
18191;DHT22;47004;51.366;12.348;2023-04-02T10:27:52;4.80;99.90
18191;DHT22;47004;51.366;12.348;2023-04-02T10:30:07;4.80;99.90
18191;DHT22;47004;51.366;12.348;2023-04-02T10:32:14;4.90;99.90
18191;DHT22;47004;51.366;12.348;2023-04-02T10:34:22;4.90;99.90
18191;DHT22;47004;51.366;12.348;2023-04-02T10:36:32;5.00;99.90
18191;DHT22;47004;51.366;12.348;2023-04-02T10:38:42;5.00;99.90
18191;DHT22;47004;51.366;12.348;2023-04-02T10:40:47;5.00;99.90
18191;DHT22;47004;51.366;12.348;2023-04-02T10:43:07;5.00;99.90
18191;DHT22;47004;51.366;12.348;2023-04-02T10:45:21;5.00;99.90
18191;DHT22;47004;51.366;12.348;2023-04-02T10:47:32;5.00;99.90
18191;DHT22;47004;51.366;12.348;2023-04-02T10:49:40;5.00;99.90
18191;DHT22;47004;51.366;12.348;2023-04-02T10:51:44;5.10;99.90
18191;DHT22;47004;51.366;12.348;2023-04-02T10:53:51;5.10;99.90
18191;DHT22;47004;51.366;12.348;2023-04-02T10:55:57;5.20;99.90
18191;DHT22;47004;51.366;12.348;2023-04-02T10:58:06;5.20;99.90
18191;DHT22;47004;51.366;12.348;2023-04-02T11:00:21;5.20;99.90
18191;DHT22;47004;51.366;12.348;2023-04-02T11:02:35;5.30;99.90
18191;DHT22;47004;51.366;12.348;2023-04-02T11:04:42;5.40;99.90
18191;DHT22;47004;51.366;12.348;2023-04-02T11:06:48;5.40;99.90
18191;DHT22;47004;51.366;12.348;2023-04-02T11:08:56;5.40;99.90
18191;DHT22;47004;51.366;12.348;2023-04-02T11:11:02;5.50;99.90
18191;DHT22;47004;51.366;12.348;2023-04-02T11:13:14;5.50;99.90
18191;DHT22;47004;51.366;12.348;2023-04-02T11:15:20;5.50;99.90
18191;DHT22;47004;51.366;12.348;2023-04-02T11:17:23;5.60;99.90
18191;DHT22;47004;51.366;12.348;2023-04-02T11:19:27;5.60;99.90
18191;DHT22;47004;51.366;12.348;2023-04-02T11:21:40;5.60;99.90
18191;DHT22;47004;51.366;12.348;2023-04-02T11:23:57;5.70;99.90
18191;DHT22;47004;51.366;12.348;2023-04-02T11:26:28;5.80;99.90
18191;DHT22;47004;51.366;12.348;2023-04-02T11:28:31;5.80;99.90
18191;DHT22;47004;51.366;12.348;2023-04-02T11:30:35;5.80;99.90
18191;DHT22;47004;51.366;12.348;2023-04-02T11:32:38;5.80;99.90
18191;DHT22;47004;51.366;12.348;2023-04-02T11:37:33;5.90;99.90
18191;DHT22;47004;51.366;12.348;2023-04-02T11:39:47;5.90;99.90
18191;DHT22;47004;51.366;12.348;2023-04-02T11:42:05;6.00;99.90
18191;DHT22;47004;51.366;12.348;2023-04-02T11:44:22;6.00;99.90
18191;DHT22;47004;51.366;12.348;2023-04-02T11:46:50;6.10;99.90
18191;DHT22;47004;51.366;12.348;2023-04-02T11:48:52;6.20;99.90
18191;DHT22;47004;51.366;12.348;2023-04-02T11:50:54;6.30;99.90
18191;DHT22;47004;51.366;12.348;2023-04-02T11:52:59;6.40;99.90
18191;DHT22;47004;51.366;12.348;2023-04-02T11:55:25;6.50;99.90
18191;DHT22;47004;51.366;12.348;2023-04-02T11:57:42;6.70;99.90
18191;DHT22;47004;51.366;12.348;2023-04-02T11:59:54;6.90;99.90
18191;DHT22;47004;51.366;12.348;2023-04-02T12:02:10;6.90;99.90
18191;DHT22;47004;51.366;12.348;2023-04-02T12:04:58;7.10;99.90
18191;DHT22;47004;51.366;12.348;2023-04-02T12:07:24;7.10;99.90
18191;DHT22;47004;51.366;12.348;2023-04-02T12:09:43;7.20;99.90
18191;DHT22;47004;51.366;12.348;2023-04-02T12:11:46;7.20;99.90
18191;DHT22;47004;51.366;12.348;2023-04-02T12:13:50;7.30;99.90
18191;DHT22;47004;51.366;12.348;2023-04-02T12:15:56;7.30;99.90
18191;DHT22;47004;51.366;12.348;2023-04-02T12:18:08;7.20;99.90
18191;DHT22;47004;51.366;12.348;2023-04-02T12:20:19;7.20;99.90
18191;DHT22;47004;51.366;12.348;2023-04-02T12:22:24;7.20;99.90
18191;DHT22;47004;51.366;12.348;2023-04-02T12:24:26;7.10;99.90
18191;DHT22;47004;51.366;12.348;2023-04-02T12:26:33;7.10;99.90
18191;DHT22;47004;51.366;12.348;2023-04-02T12:28:38;7.10;99.90
18191;DHT22;47004;51.366;12.348;2023-04-02T12:30:41;7.00;99.90
18191;DHT22;47004;51.366;12.348;2023-04-02T12:32:44;6.90;99.90
18191;DHT22;47004;51.366;12.348;2023-04-02T12:34:47;6.90;99.90
18191;DHT22;47004;51.366;12.348;2023-04-02T12:36:57;6.90;99.90
18191;DHT22;47004;51.366;12.348;2023-04-02T12:39:03;6.90;99.90
18191;DHT22;47004;51.366;12.348;2023-04-02T12:41:19;6.90;99.90
18191;DHT22;47004;51.366;12.348;2023-04-02T12:43:25;6.80;99.90
18191;DHT22;47004;51.366;12.348;2023-04-02T12:45:29;6.80;99.90
18191;DHT22;47004;51.366;12.348;2023-04-02T12:47:32;6.80;99.90
18191;DHT22;47004;51.366;12.348;2023-04-02T12:49:36;6.80;99.90
18191;DHT22;47004;51.366;12.348;2023-04-02T12:51:40;6.80;99.90
18191;DHT22;47004;51.366;12.348;2023-04-02T12:53:48;6.90;99.90
18191;DHT22;47004;51.366;12.348;2023-04-02T12:55:52;6.90;99.90
18191;DHT22;47004;51.366;12.348;2023-04-02T12:57:54;6.90;99.90
18191;DHT22;47004;51.366;12.348;2023-04-02T12:59:57;6.90;99.90
18191;DHT22;47004;51.366;12.348;2023-04-02T13:02:01;6.90;99.90
18191;DHT22;47004;51.366;12.348;2023-04-02T13:04:05;7.00;99.90
18191;DHT22;47004;51.366;12.348;2023-04-02T13:06:20;7.00;99.90
18191;DHT22;47004;51.366;12.348;2023-04-02T13:08:27;7.10;99.90
18191;DHT22;47004;51.366;12.348;2023-04-02T13:10:30;7.10;99.90
18191;DHT22;47004;51.366;12.348;2023-04-02T13:12:34;7.20;99.90
18191;DHT22;47004;51.366;12.348;2023-04-02T13:14:37;7.30;99.90
18191;DHT22;47004;51.366;12.348;2023-04-02T13:16:39;7.30;99.90
18191;DHT22;47004;51.366;12.348;2023-04-02T13:18:42;7.40;99.90
18191;DHT22;47004;51.366;12.348;2023-04-02T13:20:54;7.40;99.90
18191;DHT22;47004;51.366;12.348;2023-04-02T13:22:57;7.40;99.90
18191;DHT22;47004;51.366;12.348;2023-04-02T13:25:00;7.40;99.90
18191;DHT22;47004;51.366;12.348;2023-04-02T13:27:03;7.40;99.90